Terminal Aerodrome Forecast
Issued by NWS

Current Version | Previous Version | Text Only | Print | Product List | Glossary On
Versions: 1 2 3 4 5 6 7 8 9 10 11 12 13 14 15 16 17
000
FTUS44 KLIX 281700 RRA
TAFMCB
TAF
KMCB 281748Z 2818/2918 36006KT P6SM OVC004
     FM282000 34007KT 6SM -SHRA OVC003
     FM290600 34005KT 2SM BR BKN002=

USA.gov is the U.S. government's official web portal to all federal, state and local government web resources and services.